sensor_id;sensor_type;location;lat;lon;timestamp;pressure;altitude;pressure_sealevel;temperature;humidity
27980;BME280;15315;50.836;4.430;2023-02-19T00:02:08;101526.06;;;12.58;100.00
27980;BME280;15315;50.836;4.430;2023-02-19T00:12:08;101543.97;;;12.32;100.00
27980;BME280;15315;50.836;4.430;2023-02-19T00:22:08;101538.56;;;12.32;100.00
27980;BME280;15315;50.836;4.430;2023-02-19T00:32:09;101529.50;;;13.53;100.00
27980;BME280;15315;50.836;4.430;2023-02-19T00:42:09;101527.78;;;13.77;100.00
27980;BME280;15315;50.836;4.430;2023-02-19T00:52:09;101530.66;;;13.49;100.00
27980;BME280;15315;50.836;4.430;2023-02-19T01:02:10;101519.94;;;13.47;100.00
27980;BME280;15315;50.836;4.430;2023-02-19T01:12:10;101530.66;;;13.36;100.00
27980;BME280;15315;50.836;4.430;2023-02-19T01:22:11;101550.75;;;13.97;100.00
27980;BME280;15315;50.836;4.430;2023-02-19T01:32:11;101535.13;;;13.50;100.00
27980;BME280;15315;50.836;4.430;2023-02-19T01:42:15;101557.94;;;13.60;100.00
27980;BME280;15315;50.836;4.430;2023-02-19T01:52:24;101564.53;;;13.81;100.00
27980;BME280;15315;50.836;4.430;2023-02-19T02:02:27;101546.75;;;13.90;100.00
27980;BME280;15315;50.836;4.430;2023-02-19T02:12:28;101555.16;;;13.47;100.00
27980;BME280;15315;50.836;4.430;2023-02-19T02:43:07;101565.75;;;13.38;100.00
27980;BME280;15315;50.836;4.430;2023-02-19T02:53:12;101570.06;;;13.54;100.00
27980;BME280;15315;50.836;4.430;2023-02-19T03:03:35;101568.13;;;13.82;100.00
27980;BME280;15315;50.836;4.430;2023-02-19T03:13:38;101582.22;;;13.99;100.00
27980;BME280;15315;50.836;4.430;2023-02-19T03:23:57;101580.56;;;13.59;100.00
27980;BME280;15315;50.836;4.430;2023-02-19T03:34:24;101585.78;;;13.75;100.00
27980;BME280;15315;50.836;4.430;2023-02-19T03:44:45;101604.19;;;12.77;100.00
27980;BME280;15315;50.836;4.430;2023-02-19T04:04:53;101632.59;;;13.64;100.00
27980;BME280;15315;50.836;4.430;2023-02-19T04:15:01;101639.09;;;13.08;100.00
27980;BME280;15315;50.836;4.430;2023-02-19T04:25:03;101642.84;;;12.65;100.00
27980;BME280;15315;50.836;4.430;2023-02-19T04:35:04;101658.78;;;12.27;100.00
27980;BME280;15315;50.836;4.430;2023-02-19T04:45:05;101674.16;;;12.83;100.00
27980;BME280;15315;50.836;4.430;2023-02-19T04:55:06;101689.53;;;12.10;100.00
27980;BME280;15315;50.836;4.430;2023-02-19T05:05:07;101687.16;;;13.05;100.00
27980;BME280;15315;50.836;4.430;2023-02-19T05:15:07;101684.63;;;12.61;100.00
27980;BME280;15315;50.836;4.430;2023-02-19T05:25:08;101704.69;;;12.85;100.00
27980;BME280;15315;50.836;4.430;2023-02-19T05:35:08;101716.56;;;12.54;100.00
27980;BME280;15315;50.836;4.430;2023-02-19T05:45:08;101730.69;;;13.02;100.00
27980;BME280;15315;50.836;4.430;2023-02-19T05:55:10;101728.63;;;13.46;100.00
27980;BME280;15315;50.836;4.430;2023-02-19T06:05:11;101748.34;;;11.61;100.00
27980;BME280;15315;50.836;4.430;2023-02-19T06:15:12;101748.44;;;12.91;100.00
27980;BME280;15315;50.836;4.430;2023-02-19T06:25:12;101766.81;;;12.28;100.00
27980;BME280;15315;50.836;4.430;2023-02-19T06:35:12;101770.22;;;12.90;100.00
27980;BME280;15315;50.836;4.430;2023-02-19T06:45:13;101773.88;;;12.61;100.00
27980;BME280;15315;50.836;4.430;2023-02-19T06:55:14;101768.00;;;13.51;100.00
27980;BME280;15315;50.836;4.430;2023-02-19T07:05:14;101795.97;;;13.38;100.00
27980;BME280;15315;50.836;4.430;2023-02-19T07:15:15;101795.59;;;13.44;100.00
27980;BME280;15315;50.836;4.430;2023-02-19T07:25:15;101820.56;;;13.21;100.00
27980;BME280;15315;50.836;4.430;2023-02-19T07:35:16;101828.81;;;13.19;100.00
27980;BME280;15315;50.836;4.430;2023-02-19T07:45:16;101841.75;;;13.56;100.00
27980;BME280;15315;50.836;4.430;2023-02-19T07:55:16;101845.00;;;12.77;100.00
27980;BME280;15315;50.836;4.430;2023-02-19T08:05:17;101875.19;;;13.27;100.00
27980;BME280;15315;50.836;4.430;2023-02-19T08:15:17;101888.66;;;13.01;100.00
27980;BME280;15315;50.836;4.430;2023-02-19T08:25:19;101892.88;;;12.90;100.00
27980;BME280;15315;50.836;4.430;2023-02-19T08:35:19;101919.03;;;13.76;100.00
27980;BME280;15315;50.836;4.430;2023-02-19T08:45:20;101935.78;;;13.69;100.00
27980;BME280;15315;50.836;4.430;2023-02-19T08:55:20;101952.31;;;13.22;100.00
27980;BME280;15315;50.836;4.430;2023-02-19T09:05:21;101969.28;;;13.96;100.00
27980;BME280;15315;50.836;4.430;2023-02-19T09:15:21;101961.56;;;13.04;100.00
27980;BME280;15315;50.836;4.430;2023-02-19T09:25:21;101981.09;;;13.09;100.00
27980;BME280;15315;50.836;4.430;2023-02-19T09:35:22;101979.09;;;13.26;100.00
27980;BME280;15315;50.836;4.430;2023-02-19T09:45:24;101981.16;;;14.21;100.00
27980;BME280;15315;50.836;4.430;2023-02-19T09:55:31;101972.66;;;13.99;100.00
27980;BME280;15315;50.836;4.430;2023-02-19T10:05:34;101991.06;;;14.08;100.00
27980;BME280;15315;50.836;4.430;2023-02-19T10:15:38;101998.13;;;13.54;100.00
27980;BME280;15315;50.836;4.430;2023-02-19T10:25:45;102012.75;;;14.08;100.00
27980;BME280;15315;50.836;4.430;2023-02-19T10:36:05;102020.25;;;14.99;100.00
27980;BME280;15315;50.836;4.430;2023-02-19T10:46:33;102036.28;;;14.08;100.00
27980;BME280;15315;50.836;4.430;2023-02-19T10:56:34;102042.22;;;14.41;99.27
27980;BME280;15315;50.836;4.430;2023-02-19T11:06:37;102065.22;;;14.76;99.01
27980;BME280;15315;50.836;4.430;2023-02-19T11:16:41;102073.78;;;14.70;93.63
27980;BME280;15315;50.836;4.430;2023-02-19T11:26:43;102072.69;;;15.26;90.98
27980;BME280;15315;50.836;4.430;2023-02-19T11:36:44;102078.44;;;14.68;92.48
27980;BME280;15315;50.836;4.430;2023-02-19T12:38:29;102041.69;;;13.94;93.72
27980;BME280;15315;50.836;4.430;2023-02-19T12:58:45;102080.25;;;13.25;93.72
27980;BME280;15315;50.836;4.430;2023-02-19T13:08:53;102105.63;;;13.54;90.64
27980;BME280;15315;50.836;4.430;2023-02-19T13:18:58;102101.78;;;13.13;100.00
27980;BME280;15315;50.836;4.430;2023-02-19T13:39:25;102122.41;;;13.15;100.00
27980;BME280;15315;50.836;4.430;2023-02-19T13:59:37;102116.25;;;13.27;93.69
27980;BME280;15315;50.836;4.430;2023-02-19T14:29:59;102136.13;;;14.15;89.97
27980;BME280;15315;50.836;4.430;2023-02-19T14:39:59;102161.63;;;14.13;90.84
27980;BME280;15315;50.836;4.430;2023-02-19T14:50:04;102171.41;;;13.11;100.00
27980;BME280;15315;50.836;4.430;2023-02-19T15:00:21;102180.56;;;13.55;98.95
27980;BME280;15315;50.836;4.430;2023-02-19T15:10:23;102165.38;;;13.67;96.19
27980;BME280;15315;50.836;4.430;2023-02-19T15:20:34;102164.47;;;13.36;96.05
27980;BME280;15315;50.836;4.430;2023-02-19T15:30:35;102159.56;;;13.58;94.54
27980;BME280;15315;50.836;4.430;2023-02-19T15:40:35;102150.53;;;13.88;93.71
27980;BME280;15315;50.836;4.430;2023-02-19T15:50:40;102135.28;;;13.41;96.38
27980;BME280;15315;50.836;4.430;2023-02-19T16:00:50;102164.94;;;12.66;97.49
27980;BME280;15315;50.836;4.430;2023-02-19T16:11:00;102165.56;;;12.71;100.00
27980;BME280;15315;50.836;4.430;2023-02-19T16:21:05;102178.03;;;13.05;98.96
27980;BME280;15315;50.836;4.430;2023-02-19T16:31:11;102190.19;;;13.29;95.97
27980;BME280;15315;50.836;4.430;2023-02-19T16:41:12;102172.94;;;13.30;97.22
27980;BME280;15315;50.836;4.430;2023-02-19T16:51:22;102192.69;;;13.32;95.26
27980;BME280;15315;50.836;4.430;2023-02-19T17:01:23;102205.88;;;13.38;92.65
27980;BME280;15315;50.836;4.430;2023-02-19T17:11:25;102219.25;;;12.94;96.57
27980;BME280;15315;50.836;4.430;2023-02-19T17:21:27;102213.41;;;13.18;95.45
27980;BME280;15315;50.836;4.430;2023-02-19T17:31:28;102212.81;;;13.13;94.68
27980;BME280;15315;50.836;4.430;2023-02-19T17:41:28;102231.50;;;13.17;93.66
27980;BME280;15315;50.836;4.430;2023-02-19T17:51:29;102229.75;;;13.16;90.56
27980;BME280;15315;50.836;4.430;2023-02-19T18:01:32;102263.00;;;12.87;93.08
27980;BME280;15315;50.836;4.430;2023-02-19T18:11:32;102262.16;;;13.49;88.22
27980;BME280;15315;50.836;4.430;2023-02-19T18:21:33;102256.59;;;12.05;89.73
27980;BME280;15315;50.836;4.430;2023-02-19T18:31:33;102238.00;;;12.49;89.44
27980;BME280;15315;50.836;4.430;2023-02-19T18:41:36;102231.28;;;12.58;88.79
27980;BME280;15315;50.836;4.430;2023-02-19T18:51:36;102249.13;;;12.77;87.27
27980;BME280;15315;50.836;4.430;2023-02-19T19:01:36;102255.91;;;12.52;88.75
27980;BME280;15315;50.836;4.430;2023-02-19T19:11:37;102242.13;;;12.73;88.83
27980;BME280;15315;50.836;4.430;2023-02-19T19:21:37;102240.50;;;13.02;85.70
27980;BME280;15315;50.836;4.430;2023-02-19T19:31:37;102250.88;;;12.94;86.00
27980;BME280;15315;50.836;4.430;2023-02-19T19:41:38;102248.72;;;13.01;85.01
27980;BME280;15315;50.836;4.430;2023-02-19T19:51:38;102243.28;;;13.01;84.04
27980;BME280;15315;50.836;4.430;2023-02-19T20:01:47;102239.50;;;12.72;85.93
27980;BME280;15315;50.836;4.430;2023-02-19T20:11:49;102237.91;;;12.51;87.68
27980;BME280;15315;50.836;4.430;2023-02-19T20:21:51;102245.94;;;12.19;88.79
27980;BME280;15315;50.836;4.430;2023-02-19T20:31:52;102249.38;;;11.89;90.66
27980;BME280;15315;50.836;4.430;2023-02-19T20:41:52;102268.91;;;12.11;89.79
27980;BME280;15315;50.836;4.430;2023-02-19T20:51:58;102266.47;;;11.89;90.30
27980;BME280;15315;50.836;4.430;2023-02-19T21:02:00;102261.13;;;11.70;93.29
27980;BME280;15315;50.836;4.430;2023-02-19T21:12:00;102260.44;;;12.01;90.15
27980;BME280;15315;50.836;4.430;2023-02-19T21:22:00;102258.25;;;11.73;92.01
27980;BME280;15315;50.836;4.430;2023-02-19T21:32:01;102256.97;;;11.45;94.04
27980;BME280;15315;50.836;4.430;2023-02-19T21:42:01;102250.56;;;11.29;94.85
27980;BME280;15315;50.836;4.430;2023-02-19T21:52:02;102251.72;;;11.60;93.20
27980;BME280;15315;50.836;4.430;2023-02-19T22:02:03;102255.31;;;11.61;92.09
27980;BME280;15315;50.836;4.430;2023-02-19T22:12:03;102258.25;;;11.73;89.95
27980;BME280;15315;50.836;4.430;2023-02-19T22:22:06;102270.09;;;11.71;90.17
27980;BME280;15315;50.836;4.430;2023-02-19T22:32:07;102253.19;;;11.49;91.57
27980;BME280;15315;50.836;4.430;2023-02-19T22:42:07;102231.44;;;11.52;92.01
27980;BME280;15315;50.836;4.430;2023-02-19T22:52:08;102232.56;;;11.10;96.73
27980;BME280;15315;50.836;4.430;2023-02-19T23:02:11;102244.84;;;11.18;96.81
27980;BME280;15315;50.836;4.430;2023-02-19T23:12:11;102236.16;;;10.92;100.00
27980;BME280;15315;50.836;4.430;2023-02-19T23:22:11;102230.88;;;10.12;100.00
27980;BME280;15315;50.836;4.430;2023-02-19T23:32:12;102216.13;;;10.79;100.00
27980;BME280;15315;50.836;4.430;2023-02-19T23:42:14;102199.84;;;10.43;100.00
27980;BME280;15315;50.836;4.430;2023-02-19T23:52:17;102203.34;;;10.05;100.00
